Portada
METAR-TAF:

METAR-TAF

Aeroports :

Holguín, Cuba

latitud: 20-47N, longitud: 076-19W, altitud: 106 m

Observació

L'informe es va fer fa 24 minuts, a les 09:50 UTC
Vent 2 kt del Nord/Nord-Est
Temperatura 21°C
Humitat 100%
Pressió 1016 hPa
Visibilitat: 7000 m
Cel clar
boira a les proximitats

METAR: MUHG 150950Z 03002KT 7000 VCFG SKC 21/21 Q1016

Hora: 05:14 (10:14 UTC)

Pronòstic

L'informe es va fer fa 5 hores i 14 minuts, a les 05:00 UTC
Pronòstic vàlid del 15 a les 06 UTC al 16 a les 06 UTC
Vent 3 kt amb direcció variable
Visibilitat: 9000 m
Núvols disperses a una alçada de 2000 ft
Evolucionant progressivament
l' 15 a les 15 UTC al 15 a les 17 UTC
Vent 10 kt del Nord-Est
Evolucionant progressivament
l' 16 a les 01 UTC al 16 a les 03 UTC
Vent 3 kt amb direcció variable

TAF: MUHG 150500Z 1506/1606 VRB03KT 9000 SCT020 BECMG 1515/1517 05010KT BECMG 1601/1603 VRB03KT

Observacions i pronòstics meteorològics de més de 4000 aeroports (METAR i TAF).

Les estacions disponibles són els punts grocs i vermells al mapa.

Posi el ratolí al punt desitjat per veure el nom de l'estació.

Feu clic per veure les observacions i els pronòstics meteorològics.

Per canviar el mapa: feu clic els botons verds amb una creu de color negre per apropar; al botó verd amb un guió per allunyar la imatge; o en les fletxes verdes per a mapes adjacents.


METAR-TAF: